Time;durP1;ratioP1;P1;durP2;ratioP2;P2;SDS_P1;SDS_P2;PMS_P1;PMS_P2;Temp;Humidity;BMP_temperature;BMP_pressure;BME280_temperature;BME280_humidity;BME280_pressure;Samples;Min_cycle;Max_cycle;Signal;HPM_P1;HPM_P2
2022/09/01 00:02:27;;;;;;;3.28;0.50;;;15.50;93.00;;;;;;5031393;28;20385;-48
2022/09/01 00:04:57;;;;;;;4.38;0.50;;;15.50;93.10;;;;;;5048060;28;20044;-50
2022/09/01 00:07:25;;;;;;;2.42;0.57;;;15.40;93.10;;;;;;5031727;28;20055;-53
2022/09/01 00:09:50;;;;;;;3.58;0.93;;;15.40;93.20;;;;;;5036750;28;20036;-48
2022/09/01 00:12:16;;;;;;;3.92;0.50;;;15.40;93.30;;;;;;5031053;28;20064;-48
2022/09/01 00:14:42;;;;;;;1.40;0.75;;;15.30;93.40;;;;;;5049323;28;20037;-50
2022/09/01 00:17:10;;;;;;;1.45;0.50;;;15.30;93.50;;;;;;5048770;28;20487;-50
2022/09/01 00:19:37;;;;;;;0.60;0.45;;;15.20;93.50;;;;;;5048429;28;20044;-48
2022/09/01 00:22:03;;;;;;;4.20;0.65;;;15.20;94.00;;;;;;5045471;28;20060;-46
2022/09/01 00:24:29;;;;;;;1.15;0.40;;;15.20;93.70;;;;;;5029540;28;20124;-46
2022/09/01 00:26:56;;;;;;;1.38;0.52;;;15.20;93.70;;;;;;5040870;28;20110;-51
2022/09/01 00:29:23;;;;;;;2.35;0.80;;;15.20;93.60;;;;;;5048039;28;20033;-48
2022/09/01 00:31:49;;;;;;;4.10;1.10;;;15.10;93.60;;;;;;5048689;28;20056;-50
2022/09/01 00:34:15;;;;;;;3.05;0.50;;;15.10;93.80;;;;;;5049458;28;20037;-50
2022/09/01 00:36:41;;;;;;;;;;;15.10;93.70;;;;;;5050363;28;20533;-49
2022/09/01 00:39:07;;;;;;;4.15;0.68;;;15.00;94.00;;;;;;5040405;28;20081;-46
2022/09/01 00:41:37;;;;;;;3.35;0.60;;;15.00;93.90;;;;;;5032079;28;20045;-50
2022/09/01 00:44:07;;;;;;;1.95;0.55;;;15.00;93.90;;;;;;5034085;28;20505;-48
2022/09/01 00:46:48;;;;;;;1.00;0.50;;;14.90;93.90;;;;;;5050933;28;20033;-50
2022/09/01 00:49:18;;;;;;;2.67;0.40;;;14.90;94.10;;;;;;5038524;28;20043;-48
2022/09/01 00:51:47;;;;;;;1.67;0.93;;;14.90;94.00;;;;;;5049598;28;20048;-51
2022/09/01 00:54:18;;;;;;;1.70;0.30;;;14.90;94.10;;;;;;5046784;28;20083;-51
2022/09/01 00:56:45;;;;;;;1.55;0.50;;;14.80;94.10;;;;;;5033715;28;20072;-46
2022/09/01 00:59:11;;;;;;;1.65;0.40;;;14.80;94.10;;;;;;5031341;28;20630;-49
2022/09/01 01:01:38;;;;;;;1.88;0.52;;;14.80;94.10;;;;;;5029865;28;20037;-48
2022/09/01 01:04:05;;;;;;;2.95;0.40;;;14.80;94.10;;;;;;5041973;28;20342;-49
2022/09/01 01:06:31;;;;;;;3.20;0.60;;;14.80;94.10;;;;;;5050369;28;20041;-50
2022/09/01 01:09:00;;;;;;;1.90;0.35;;;14.70;94.20;;;;;;5038576;28;20038;-50
2022/09/01 01:11:31;;;;;;;1.48;0.80;;;14.70;94.20;;;;;;5043011;28;20399;-49
2022/09/01 01:14:10;;;;;;;1.20;0.40;;;14.70;94.20;;;;;;5046947;28;20040;-51
2022/09/01 01:16:43;;;;;;;4.47;0.60;;;14.70;94.30;;;;;;5047872;28;20041;-48
2022/09/01 01:25:12;;;;;;;2.85;0.40;;;14.60;94.30;;;;;;5050412;28;20044;-50
2022/09/01 01:27:41;;;;;;;1.45;0.45;;;14.60;94.30;;;;;;5047802;28;20499;-48
2022/09/01 01:30:10;;;;;;;3.15;0.50;;;14.60;94.30;;;;;;5049060;28;20060;-51
2022/09/01 01:32:41;;;;;;;2.03;0.40;;;14.60;94.20;;;;;;5038463;28;20416;-47
2022/09/01 01:35:13;;;;;;;3.72;0.63;;;14.50;94.20;;;;;;5045538;28;20033;-47
2022/09/01 01:37:44;;;;;;;2.65;0.50;;;14.50;94.20;;;;;;5034876;28;20080;-47
2022/09/01 01:40:14;;;;;;;1.80;0.50;;;14.50;94.30;;;;;;5031184;28;20498;-48
2022/09/01 01:42:43;;;;;;;3.28;0.60;;;14.40;94.30;;;;;;5044852;28;20037;-46
2022/09/01 01:45:11;;;;;;;1.52;0.30;;;14.40;94.40;;;;;;5049680;28;20044;-47
2022/09/01 01:47:37;;;;;;;5.13;0.90;;;14.40;94.60;;;;;;5048663;28;20060;-47
2022/09/01 01:50:08;;;;;;;2.28;0.38;;;14.40;94.40;;;;;;5039972;28;20582;-46
2022/09/01 01:52:34;;;;;;;1.67;0.52;;;14.30;94.50;;;;;;5041726;28;20041;-46
2022/09/01 01:55:01;;;;;;;1.17;0.57;;;14.30;94.50;;;;;;5043711;28;20045;-46
2022/09/01 01:57:30;;;;;;;6.88;0.40;;;14.30;94.50;;;;;;5029312;28;20084;-46
2022/09/01 01:59:56;;;;;;;4.40;0.35;;;14.20;94.60;;;;;;5032428;28;20124;-46
2022/09/01 02:02:22;;;;;;;1.80;0.40;;;14.20;94.60;;;;;;5030830;28;20141;-47
2022/09/01 02:04:48;;;;;;;0.52;0.32;;;14.20;94.70;;;;;;5047381;28;20036;-46
2022/09/01 02:07:14;;;;;;;5.05;0.50;;;14.20;94.80;;;;;;5049754;28;20114;-48
2022/09/01 02:09:45;;;;;;;0.80;0.35;;;14.20;94.80;;;;;;5033419;28;20075;-47
2022/09/01 02:12:10;;;;;;;3.05;0.50;;;14.10;94.70;;;;;;5030217;28;20496;-46
2022/09/01 02:14:37;;;;;;;0.55;0.43;;;14.10;94.80;;;;;;5028458;28;20047;-47
2022/09/01 02:17:05;;;;;;;2.17;0.35;;;14.10;94.90;;;;;;5031211;28;20117;-47
2022/09/01 02:19:30;;;;;;;4.45;0.80;;;14.00;94.90;;;;;;5032305;28;20120;-48
2022/09/01 02:21:58;;;;;;;1.33;0.40;;;14.10;94.90;;;;;;5046610;28;20109;-50
2022/09/01 02:24:25;;;;;;;1.67;0.30;;;14.00;94.90;;;;;;5041940;28;20050;-50
2022/09/01 02:26:51;;;;;;;1.70;0.40;;;14.00;95.00;;;;;;5029428;28;20041;-50
2022/09/01 02:29:22;;;;;;;2.97;0.40;;;13.90;95.00;;;;;;5029817;28;20411;-48
2022/09/01 02:31:50;;;;;;;2.10;0.77;;;13.90;95.20;;;;;;5033754;28;20041;-51
2022/09/01 02:34:17;;;;;;;3.78;0.40;;;13.90;95.20;;;;;;5029070;28;20065;-46
2022/09/01 02:36:47;;;;;;;0.50;0.30;;;13.90;95.30;;;;;;5030089;28;20037;-52
2022/09/01 02:39:19;;;;;;;6.07;0.43;;;13.90;95.30;;;;;;5029453;28;20479;-50
2022/09/01 02:41:45;;;;;;;1.48;0.60;;;13.90;95.40;;;;;;5044743;28;20231;-50
2022/09/01 02:44:11;;;;;;;1.75;0.40;;;13.90;95.30;;;;;;5036013;28;20402;-50
2022/09/01 02:46:40;;;;;;;5.10;0.75;;;13.80;95.30;;;;;;5052167;28;20059;-50
2022/09/01 02:49:14;;;;;;;3.15;0.40;;;13.80;95.30;;;;;;5041718;28;20033;-49
2022/09/01 02:51:44;;;;;;;1.95;0.50;;;13.80;95.40;;;;;;5034837;28;20103;-48
2022/09/01 02:54:16;;;;;;;4.55;0.68;;;13.80;95.40;;;;;;5052127;28;20098;-47
2022/09/01 02:56:46;;;;;;;4.53;0.57;;;13.70;95.50;;;;;;5042609;28;20526;-50
2022/09/01 02:59:14;;;;;;;1.15;0.40;;;13.70;95.50;;;;;;5041895;28;20522;-47
2022/09/01 03:01:41;;;;;;;1.15;0.50;;;13.70;95.50;;;;;;5050283;28;20542;-50
2022/09/01 03:04:09;;;;;;;3.95;0.38;;;13.70;95.50;;;;;;5047914;28;20045;-46
2022/09/01 03:06:37;;;;;;;1.48;0.40;;;13.70;95.60;;;;;;5034387;28;20111;-46
2022/09/01 03:09:07;;;;;;;2.47;0.73;;;13.60;95.50;;;;;;5042214;28;20044;-51
2022/09/01 03:11:35;;;;;;;6.32;0.50;;;13.60;95.50;;;;;;5040899;28;20044;-47
2022/09/01 03:14:01;;;;;;;1.40;0.50;;;13.60;95.60;;;;;;5038090;28;20049;-49
2022/09/01 03:16:29;;;;;;;0.75;0.52;;;13.60;95.70;;;;;;5019696;28;20044;-46
2022/09/01 03:18:54;;;;;;;2.80;0.70;;;13.60;96.00;;;;;;5051939;28;20036;-50
2022/09/01 03:21:20;;;;;;;0.88;0.40;;;13.60;95.80;;;;;;5051508;28;21845;-50
2022/09/01 03:23:46;;;;;;;3.78;0.40;;;13.50;95.80;;;;;;5048421;28;20553;-47
2022/09/01 03:26:13;;;;;;;2.72;0.68;;;13.50;95.70;;;;;;5052134;28;20572;-49
2022/09/01 03:28:39;;;;;;;0.98;0.43;;;13.50;95.80;;;;;;5041065;28;20112;-50
2022/09/01 03:31:06;;;;;;;2.65;0.57;;;13.50;95.90;;;;;;5033149;28;20038;-49
2022/09/01 03:33:32;;;;;;;;;;;13.50;96.00;;;;;;5046277;28;20076;-51
2022/09/01 03:35:58;;;;;;;3.13;1.13;;;13.50;96.30;;;;;;5032064;28;19917;-50
2022/09/01 03:38:25;;;;;;;1.00;0.60;;;13.40;96.20;;;;;;5031017;28;20049;-45
2022/09/01 03:40:57;;;;;;;1.75;0.50;;;13.40;96.30;;;;;;5031957;28;20041;-49
2022/09/01 03:43:26;;;;;;;1.20;0.50;;;13.40;96.30;;;;;;5041100;28;20041;-50
2022/09/01 03:45:54;;;;;;;1.83;0.75;;;13.40;96.30;;;;;;5038849;28;20095;-47
2022/09/01 03:48:21;;;;;;;2.47;0.50;;;13.40;96.30;;;;;;5043205;28;20041;-46
2022/09/01 03:50:48;;;;;;;1.52;0.50;;;13.40;96.40;;;;;;5050027;28;20041;-49
2022/09/01 03:53:16;;;;;;;0.68;0.50;;;13.40;96.50;;;;;;5048867;28;20037;-51
2022/09/01 03:55:44;;;;;;;2.10;0.47;;;13.40;96.60;;;;;;5036072;28;20025;-46
2022/09/01 03:58:13;;;;;;;2.17;0.80;;;13.40;96.70;;;;;;5050236;28;20120;-47
2022/09/01 04:00:42;;;;;;;2.65;0.60;;;13.30;96.80;;;;;;5038413;28;20431;-52
2022/09/01 04:03:10;;;;;;;0.80;0.40;;;13.30;97.00;;;;;;5049404;28;20049;-48
2022/09/01 04:05:36;;;;;;;2.13;0.60;;;13.30;97.00;;;;;;5033015;28;20049;-51
2022/09/01 04:08:04;;;;;;;;;;;13.30;97.20;;;;;;5031849;28;20116;-50
2022/09/01 04:10:34;;;;;;;1.08;0.60;;;13.30;97.50;;;;;;5031417;28;19925;-47
2022/09/01 04:13:01;;;;;;;0.85;0.30;;;13.30;97.30;;;;;;5047504;28;20164;-49
2022/09/01 04:15:28;;;;;;;0.55;0.40;;;13.30;97.30;;;;;;5023338;28;20037;-46
2022/09/01 04:18:08;;;;;;;0.85;0.38;;;13.30;97.20;;;;;;5051230;28;20071;-48
2022/09/01 04:20:46;;;;;;;2.22;0.60;;;13.30;97.40;;;;;;5030482;28;20041;-47
2022/09/01 04:23:22;;;;;;;3.60;0.40;;;13.30;97.40;;;;;;5048248;28;20048;-48
2022/09/01 04:25:49;;;;;;;1.40;0.77;;;13.30;97.50;;;;;;5049992;28;20041;-48
2022/09/01 04:28:21;;;;;;;3.10;0.60;;;13.30;97.50;;;;;;5034189;28;20045;-46
2022/09/01 04:30:57;;;;;;;0.85;0.55;;;13.20;97.60;;;;;;5029945;28;20033;-46
2022/09/01 04:33:35;;;;;;;3.05;0.52;;;13.30;97.70;;;;;;5045647;28;20048;-49
2022/09/01 04:36:02;;;;;;;1.42;0.40;;;13.20;97.70;;;;;;5040881;28;20049;-49
2022/09/01 04:38:29;;;;;;;2.58;0.90;;;13.20;97.70;;;;;;5031993;28;20037;-47
2022/09/01 04:40:56;;;;;;;3.13;0.50;;;13.10;97.90;;;;;;5032091;28;20090;-46
2022/09/01 04:43:23;;;;;;;2.95;0.82;;;13.10;98.00;;;;;;5041359;28;20036;-46
2022/09/01 04:45:50;;;;;;;3.28;0.82;;;13.10;98.00;;;;;;5036815;28;20041;-47
2022/09/01 04:48:18;;;;;;;1.33;0.60;;;13.10;98.10;;;;;;5049864;28;20048;-46
2022/09/01 04:50:44;;;;;;;1.13;0.60;;;13.10;98.10;;;;;;5050605;28;20051;-48
2022/09/01 04:53:11;;;;;;;2.08;0.88;;;13.00;98.20;;;;;;5045167;28;20033;-50
2022/09/01 04:55:43;;;;;;;0.50;0.40;;;13.00;98.30;;;;;;5030744;28;20042;-46
2022/09/01 04:58:12;;;;;;;1.38;0.60;;;13.00;98.40;;;;;;5033257;28;20040;-50
2022/09/01 05:00:39;;;;;;;14.38;1.20;;;13.00;98.40;;;;;;5065525;28;20052;-49
2022/09/01 05:03:05;;;;;;;1.95;0.75;;;13.00;98.60;;;;;;5049684;28;20041;-47
2022/09/01 05:05:42;;;;;;;0.77;0.50;;;13.00;98.70;;;;;;5030720;28;20037;-49
2022/09/01 05:08:19;;;;;;;2.83;0.52;;;13.00;98.90;;;;;;5050168;28;20052;-46
2022/09/01 05:10:48;;;;;;;1.02;0.80;;;13.00;98.70;;;;;;5050102;28;20503;-47
2022/09/01 05:13:16;;;;;;;3.13;0.68;;;13.00;99.00;;;;;;5049354;28;20155;-46
2022/09/01 05:15:47;;;;;;;1.75;0.68;;;13.00;99.10;;;;;;5047246;28;20041;-48
2022/09/01 05:18:15;;;;;;;0.70;0.50;;;13.00;99.10;;;;;;5048850;28;20114;-46
2022/09/01 05:20:42;;;;;;;3.72;0.77;;;13.00;99.10;;;;;;5050101;28;20451;-48
2022/09/01 05:23:11;;;;;;;3.28;1.17;;;13.00;99.30;;;;;;5037650;28;20495;-49
2022/09/01 05:25:43;;;;;;;3.70;0.88;;;13.10;99.30;;;;;;5030816;28;20526;-51
2022/09/01 05:28:11;;;;;;;5.15;1.63;;;13.10;99.40;;;;;;5030420;28;20123;-48
2022/09/01 05:30:38;;;;;;;2.28;1.10;;;13.10;99.40;;;;;;5030315;28;20041;-50
2022/09/01 05:33:10;;;;;;;2.92;1.00;;;13.10;99.60;;;;;;5029318;28;20037;-50
2022/09/01 05:35:39;;;;;;;1.65;0.77;;;13.20;99.60;;;;;;5031270;28;20427;-48
2022/09/01 05:38:09;;;;;;;4.38;1.27;;;13.20;99.60;;;;;;5030305;28;20030;-49
2022/09/01 05:40:39;;;;;;;2.10;0.80;;;13.20;99.70;;;;;;5030370;28;20042;-48
2022/09/01 05:43:06;;;;;;;3.42;1.17;;;13.30;99.70;;;;;;5029542;28;20049;-49
2022/09/01 05:45:34;;;;;;;1.80;0.90;;;13.30;99.80;;;;;;5031045;28;20049;-48
2022/09/01 05:48:02;;;;;;;2.50;0.85;;;13.40;99.90;;;;;;5050220;28;20491;-49
2022/09/01 05:50:27;;;;;;;9.18;0.98;;;13.40;99.90;;;;;;5048815;28;20029;-50
2022/09/01 05:52:53;;;;;;;4.13;0.73;;;13.50;99.90;;;;;;5048620;28;20045;-46
2022/09/01 05:55:18;;;;;;;2.25;0.50;;;13.60;99.90;;;;;;5048028;28;20048;-50
2022/09/01 05:57:46;;;;;;;2.40;0.70;;;13.70;99.90;;;;;;5047598;28;20029;-48
2022/09/01 06:00:13;;;;;;;1.00;0.88;;;13.80;99.90;;;;;;5049290;28;20348;-45
2022/09/01 06:02:41;;;;;;;2.55;0.60;;;13.90;99.90;;;;;;5030883;28;20088;-48
2022/09/01 06:05:07;;;;;;;17.58;1.48;;;14.00;99.90;;;;;;5039996;28;20088;-49
2022/09/01 06:07:36;;;;;;;3.40;1.10;;;14.00;99.90;;;;;;5047654;28;20128;-47
2022/09/01 06:10:03;;;;;;;2.03;1.00;;;14.10;99.90;;;;;;5049690;28;20048;-49
2022/09/01 06:12:29;;;;;;;1.85;0.80;;;14.20;99.90;;;;;;5047665;28;20044;-48
2022/09/01 06:14:55;;;;;;;2.05;0.75;;;14.30;99.90;;;;;;5049298;28;20136;-50
2022/09/01 06:17:23;;;;;;;;;;;14.40;99.90;;;;;;5042437;28;20040;-51
2022/09/01 06:19:51;;;;;;;3.45;1.20;;;14.40;99.90;;;;;;5034993;28;19917;-46
2022/09/01 06:22:19;;;;;;;3.05;1.00;;;14.50;99.90;;;;;;5052857;28;20044;-46
2022/09/01 06:24:46;;;;;;;3.25;0.73;;;14.60;99.90;;;;;;5047048;28;20037;-47
2022/09/01 06:27:16;;;;;;;3.33;0.85;;;14.70;99.90;;;;;;5033477;28;20045;-49
2022/09/01 06:29:43;;;;;;;1.85;1.08;;;14.80;99.80;;;;;;5044076;28;20056;-49
2022/09/01 06:32:09;;;;;;;1.90;0.85;;;14.80;99.50;;;;;;5050599;28;20049;-52
2022/09/01 06:34:43;;;;;;;3.63;0.50;;;14.90;99.50;;;;;;5033754;28;20045;-50
2022/09/01 06:37:11;;;;;;;3.72;0.80;;;15.00;99.50;;;;;;5032921;28;20503;-48
2022/09/01 06:39:37;;;;;;;12.00;2.45;;;15.10;99.20;;;;;;5042526;28;20082;-49
2022/09/01 06:42:03;;;;;;;5.40;0.93;;;15.20;99.20;;;;;;5052778;28;20532;-53
2022/09/01 08:04:38;;;;;;;1.10;0.30;;;18.00;94.90;;;;;;5105748;27;20461;-48
2022/09/01 08:07:04;;;;;;;2.08;0.60;;;18.40;94.00;;;;;;5107977;28;20048;-48
2022/09/01 08:09:30;;;;;;;5.05;0.30;;;18.50;94.10;;;;;;5081811;28;20036;-46
2022/09/01 08:11:55;;;;;;;6.43;0.50;;;18.60;94.20;;;;;;5074809;28;20486;-49
2022/09/01 08:14:21;;;;;;;3.90;0.30;;;18.80;94.10;;;;;;5087155;28;20410;-52
2022/09/01 08:16:46;;;;;;;0.57;0.30;;;18.90;93.60;;;;;;5067941;28;20044;-51
2022/09/01 08:19:12;;;;;;;1.13;0.40;;;19.00;93.30;;;;;;5068322;28;20490;-48
2022/09/01 08:21:39;;;;;;;1.25;0.40;;;19.10;93.10;;;;;;5076036;28;20044;-50
2022/09/01 08:24:05;;;;;;;0.63;0.40;;;19.20;92.80;;;;;;5083027;28;20111;-48
2022/09/01 08:26:31;;;;;;;1.50;0.35;;;19.30;92.60;;;;;;5084339;28;20126;-50
2022/09/01 08:28:56;;;;;;;1.73;0.50;;;19.40;92.90;;;;;;5084707;28;20054;-49
2022/09/01 08:31:23;;;;;;;207.65;13.68;;;19.50;92.70;;;;;;5080489;28;20041;-51
2022/09/01 08:33:50;;;;;;;1.52;0.82;;;19.60;92.40;;;;;;5077436;28;20051;-52
2022/09/01 08:36:17;;;;;;;3.42;1.23;;;19.80;92.40;;;;;;5085020;28;20036;-52
2022/09/01 08:38:43;;;;;;;3.08;0.55;;;19.90;92.40;;;;;;5086319;28;20521;-49
2022/09/01 08:41:34;;;;;;;1.73;0.70;;;20.00;91.90;;;;;;5087313;28;20064;-51
2022/09/01 08:44:13;;;;;;;4.53;0.63;;;20.10;91.50;;;;;;5065919;28;20052;-51
2022/09/01 08:46:41;;;;;;;3.80;0.47;;;20.20;91.60;;;;;;5067638;28;20032;-50
2022/09/01 08:49:22;;;;;;;50.58;3.63;;;20.40;91.50;;;;;;5065778;28;20080;-50
2022/09/01 08:52:01;;;;;;;3.15;0.30;;;20.50;91.00;;;;;;5066505;28;20036;-51
2022/09/01 08:54:47;;;;;;;2.92;1.05;;;20.60;90.80;;;;;;5065536;28;20045;-51
2022/09/01 08:57:17;;;;;;;4.22;0.40;;;20.70;90.30;;;;;;5067828;28;20037;-48
2022/09/01 08:59:43;;;;;;;1.10;0.20;;;20.80;90.30;;;;;;5065742;28;20036;-46
2022/09/01 09:02:25;;;;;;;6.65;0.57;;;20.80;90.30;;;;;;5066273;28;20063;-49
2022/09/01 09:05:24;;;;;;;2.58;0.40;;;21.00;89.40;;;;;;5056598;28;20044;-50
2022/09/01 09:07:58;;;;;;;3.92;0.47;;;21.10;88.30;;;;;;5055577;28;20040;-48
2022/09/01 09:10:36;;;;;;;1.60;0.30;;;21.20;88.20;;;;;;5072609;28;20546;-53
2022/09/01 09:13:15;;;;;;;4.82;0.20;;;21.20;86.80;;;;;;5070681;28;20139;-51
2022/09/01 09:15:57;;;;;;;3.50;0.30;;;21.40;87.40;;;;;;5070668;28;20580;-51
2022/09/01 09:18:32;;;;;;;1.17;0.20;;;21.40;84.80;;;;;;5071114;28;20420;-52
2022/09/01 09:21:07;;;;;;;3.08;0.60;;;21.40;84.60;;;;;;5072230;28;20028;-50
2022/09/01 09:23:38;;;;;;;3.13;0.30;;;21.40;84.60;;;;;;5056002;28;20107;-54
2022/09/01 09:26:03;;;;;;;35.10;0.90;;;21.50;83.80;;;;;;5072557;28;20044;-52
2022/09/01 09:28:29;;;;;;;;;;;21.50;83.60;;;;;;5057059;28;20043;-55
2022/09/01 09:31:28;;;;;;;0.57;0.10;;;21.60;82.60;;;;;;5052979;28;20019;-54
2022/09/01 09:33:54;;;;;;;0.70;0.20;;;21.70;82.40;;;;;;5051351;28;20515;-51
2022/09/01 09:36:21;;;;;;;;;;;21.80;82.80;;;;;;5053037;28;20047;-53
2022/09/01 09:39:02;;;;;;;;;;;21.80;80.80;;;;;;5052437;28;20390;-53
2022/09/01 09:41:27;;;;;;;1.35;0.20;;;21.80;79.70;;;;;;5054902;28;20390;-52
2022/09/01 09:43:57;;;;;;;;;;;21.80;80.50;;;;;;5071989;28;20044;-50
2022/09/01 09:46:31;;;;;;;2.10;0.50;;;21.80;79.70;;;;;;5053397;28;19967;-51
2022/09/01 09:49:30;;;;;;;4.45;0.30;;;21.80;80.40;;;;;;5051955;28;20065;-51
2022/09/01 09:52:12;;;;;;;3.38;0.10;;;21.90;79.20;;;;;;5045367;28;20088;-51
2022/09/01 09:54:57;;;;;;;16.55;0.93;;;21.90;79.10;;;;;;5047922;28;20073;-53
2022/09/01 09:57:23;;;;;;;10.75;0.40;;;22.00;79.60;;;;;;5036486;28;20046;-51
2022/09/01 09:59:54;;;;;;;;;;;22.00;79.20;;;;;;5029557;28;20033;-50
2022/09/01 10:02:33;;;;;;;5.20;0.20;;;22.10;78.30;;;;;;5031169;28;19928;-48
2022/09/01 10:05:05;;;;;;;4.47;0.20;;;22.20;79.80;;;;;;5031793;28;20048;-50
2022/09/01 10:07:33;;;;;;;1.90;0.20;;;22.20;78.50;;;;;;5039906;28;20573;-52
2022/09/01 10:10:22;;;;;;;0.95;0.13;;;22.30;77.00;;;;;;5048580;28;20155;-50
2022/09/01 10:12:47;;;;;;;2.25;0.32;;;22.30;77.40;;;;;;5029841;28;20049;-48
2022/09/01 10:15:15;;;;;;;;;;;22.40;77.40;;;;;;5047474;28;20045;-51
2022/09/01 10:17:42;;;;;;;0.40;0.10;;;22.40;75.20;;;;;;5026656;28;19917;-48
2022/09/01 10:20:24;;;;;;;0.17;0.00;;;22.50;75.60;;;;;;5040591;28;20144;-48
2022/09/01 10:22:50;;;;;;;2.22;0.20;;;22.40;74.10;;;;;;5029788;28;20057;-48
2022/09/01 10:25:24;;;;;;;1.20;0.17;;;22.50;75.20;;;;;;5028716;28;20061;-46
2022/09/01 10:27:56;;;;;;;1.75;0.10;;;22.60;74.20;;;;;;5042290;28;20049;-44
2022/09/01 10:30:22;;;;;;;1.60;0.10;;;22.60;74.10;;;;;;5057046;28;20036;-47
2022/09/01 10:32:53;;;;;;;;;;;22.60;73.20;;;;;;5052060;28;20139;-47
2022/09/01 10:35:45;;;;;;;0.88;0.10;;;22.70;71.70;;;;;;5051240;28;19986;-46
2022/09/01 10:38:27;;;;;;;16.63;1.00;;;22.60;72.50;;;;;;5042027;28;20182;-46
2022/09/01 10:41:08;;;;;;;18.55;0.50;;;22.70;71.40;;;;;;5065261;28;20063;-45
2022/09/01 10:43:44;;;;;;;10.93;0.60;;;22.70;72.30;;;;;;5055432;28;20094;-49
2022/09/01 10:46:18;;;;;;;;;;;22.70;72.60;;;;;;5051357;28;20066;-49
2022/09/01 10:48:49;;;;;;;4.35;0.20;;;22.70;72.20;;;;;;5050653;28;20374;-50
2022/09/01 10:51:14;;;;;;;5.55;0.30;;;22.60;71.20;;;;;;5052076;28;20056;-48
2022/09/01 10:53:44;;;;;;;;;;;22.60;72.70;;;;;;5058853;28;20052;-52
2022/09/01 10:56:26;;;;;;;5.75;0.30;;;22.70;72.10;;;;;;5066752;28;19967;-52
2022/09/01 10:59:10;;;;;;;3.92;0.45;;;22.80;72.30;;;;;;5064378;28;20491;-51
2022/09/01 11:01:38;;;;;;;1.30;0.10;;;22.90;71.40;;;;;;5050094;28;20036;-52
2022/09/01 11:04:07;;;;;;;0.55;0.10;;;23.00;70.60;;;;;;5058675;28;20044;-50
2022/09/01 11:06:42;;;;;;;2.40;0.30;;;23.00;70.50;;;;;;5051618;28;20037;-50
2022/09/01 11:09:22;;;;;;;0.35;0.15;;;23.10;70.40;;;;;;5050622;28;20119;-51
2022/09/01 11:12:21;;;;;;;2.60;0.20;;;23.10;70.40;;;;;;5049106;28;20517;-51
2022/09/01 11:14:53;;;;;;;1.13;0.20;;;23.20;69.70;;;;;;5058485;28;20537;-51
2022/09/01 11:17:32;;;;;;;213.40;15.40;;;23.30;68.20;;;;;;5065092;28;20686;-52
2022/09/01 11:20:09;;;;;;;2.17;0.20;;;23.40;69.10;;;;;;5070191;28;20040;-50
2022/09/01 11:22:43;;;;;;;3.92;0.20;;;23.50;67.10;;;;;;5067883;28;20048;-52
2022/09/01 11:25:33;;;;;;;2.88;0.10;;;23.50;65.50;;;;;;5052635;28;20033;-48
2022/09/01 11:28:08;;;;;;;2.25;0.20;;;23.60;67.30;;;;;;5057960;28;20075;-52
2022/09/01 11:31:00;;;;;;;6.05;0.22;;;23.50;67.00;;;;;;5069850;28;20121;-51
2022/09/01 11:33:28;;;;;;;8.25;0.35;;;23.60;65.70;;;;;;5063264;28;20059;-51
2022/09/01 11:36:10;;;;;;;1.13;0.17;;;23.70;66.80;;;;;;5065514;28;20083;-50
2022/09/01 11:38:50;;;;;;;2.08;0.10;;;23.70;65.80;;;;;;5061236;28;20064;-50
2022/09/01 11:41:22;;;;;;;3.45;0.20;;;23.80;64.80;;;;;;5069034;28;20099;-51
2022/09/01 11:43:53;;;;;;;4.43;0.50;;;23.90;66.10;;;;;;5058786;28;20033;-50
2022/09/01 11:46:31;;;;;;;1.20;0.38;;;24.00;66.50;;;;;;5062627;28;20036;-52
2022/09/01 11:49:00;;;;;;;2.88;0.17;;;24.00;63.50;;;;;;5070104;28;20036;-50
2022/09/01 11:51:25;;;;;;;3.25;0.20;;;24.00;65.20;;;;;;5064577;28;20119;-51
2022/09/01 11:53:59;;;;;;;5.38;0.38;;;24.10;65.60;;;;;;5049398;28;20102;-52
2022/09/01 11:56:26;;;;;;;3.25;0.30;;;24.20;63.60;;;;;;5050767;28;20049;-49
2022/09/01 11:58:52;;;;;;;1.02;0.30;;;24.30;64.00;;;;;;5070416;28;20494;-49
2022/09/01 12:01:30;;;;;;;1.98;0.20;;;24.20;63.60;;;;;;5065439;28;20067;-52
2022/09/01 12:03:57;;;;;;;0.38;0.10;;;24.20;63.00;;;;;;5049208;28;20037;-50
2022/09/01 12:06:26;;;;;;;1.55;0.10;;;24.20;63.80;;;;;;5056054;28;20052;-49
2022/09/01 12:09:00;;;;;;;3.25;0.10;;;24.30;63.30;;;;;;5049989;28;20037;-52
2022/09/01 12:11:30;;;;;;;2.28;0.20;;;24.30;63.80;;;;;;5058872;28;20136;-50
2022/09/01 12:14:04;;;;;;;0.40;0.10;;;24.40;64.00;;;;;;5047989;28;20079;-52
2022/09/01 12:16:34;;;;;;;5.57;0.10;;;24.50;63.00;;;;;;5049518;28;20047;-52
2022/09/01 12:19:00;;;;;;;4.65;0.10;;;24.50;63.60;;;;;;5050023;28;20119;-48
2022/09/01 12:21:44;;;;;;;4.88;0.30;;;24.40;62.50;;;;;;5048336;28;20426;-51
2022/09/01 12:24:17;;;;;;;0.63;0.10;;;24.40;62.50;;;;;;5047613;28;20052;-51
2022/09/01 12:26:43;;;;;;;5.30;0.28;;;24.40;62.80;;;;;;5058118;28;20052;-51
2022/09/01 12:29:12;;;;;;;40.00;1.67;;;24.40;62.60;;;;;;5067433;28;20044;-52
2022/09/01 12:31:42;;;;;;;61.58;4.20;;;24.40;61.70;;;;;;5069592;28;20036;-52
2022/09/01 12:34:26;;;;;;;3.20;0.10;;;24.40;62.20;;;;;;5068919;28;20044;-51
2022/09/01 12:37:05;;;;;;;2.20;0.10;;;24.40;61.70;;;;;;5062177;28;20028;-47
2022/09/01 12:39:38;;;;;;;6.22;0.30;;;24.30;59.60;;;;;;5068620;28;20119;-50
2022/09/01 12:42:20;;;;;;;7.40;0.40;;;24.10;60.30;;;;;;5066089;28;20126;-50
2022/09/01 12:44:52;;;;;;;4.78;0.22;;;24.00;60.00;;;;;;5062379;28;20434;-51
2022/09/01 12:47:34;;;;;;;2.22;0.00;;;24.00;61.40;;;;;;5061873;28;20098;-51
2022/09/01 12:50:00;;;;;;;5.28;0.20;;;24.20;60.40;;;;;;5069739;28;20048;-50
2022/09/01 12:52:27;;;;;;;1.55;0.10;;;24.20;60.20;;;;;;5071416;28;20076;-50
2022/09/01 12:55:02;;;;;;;0.70;0.20;;;24.20;60.10;;;;;;5065943;28;20036;-47
2022/09/01 12:57:47;;;;;;;2.17;0.20;;;24.10;59.70;;;;;;5054851;28;20045;-49
2022/09/01 13:00:16;;;;;;;3.38;0.10;;;24.10;60.40;;;;;;5071284;28;20040;-50
2022/09/01 13:03:05;;;;;;;0.73;0.10;;;24.10;60.70;;;;;;5057775;28;20037;-50
2022/09/01 13:05:32;;;;;;;6.35;0.10;;;24.10;59.60;;;;;;5058183;28;20033;-51
2022/09/01 13:08:01;;;;;;;1.52;0.43;;;24.20;60.30;;;;;;5070742;28;20102;-47
2022/09/01 13:10:33;;;;;;;3.97;0.17;;;24.30;59.50;;;;;;5071648;28;20094;-48
2022/09/01 13:12:59;;;;;;;0.70;0.10;;;24.30;59.60;;;;;;5064183;28;20041;-45
2022/09/01 13:15:25;;;;;;;3.53;0.17;;;24.10;60.30;;;;;;5077888;28;20064;-48
2022/09/01 13:17:51;;;;;;;2.20;0.10;;;24.00;59.70;;;;;;5054725;28;20495;-46
2022/09/01 13:20:17;;;;;;;0.90;0.30;;;23.80;60.10;;;;;;5051982;28;20584;-46
2022/09/01 13:22:43;;;;;;;1.73;0.10;;;23.80;60.90;;;;;;5053144;28;20041;-45
2022/09/01 13:25:16;;;;;;;3.42;0.13;;;23.80;60.50;;;;;;5066508;28;20041;-45
2022/09/01 13:27:43;;;;;;;3.17;0.10;;;23.70;60.80;;;;;;5056938;28;20036;-45
2022/09/01 13:30:11;;;;;;;3.50;0.10;;;23.70;60.80;;;;;;5051728;28;20045;-46
2022/09/01 13:32:37;;;;;;;0.47;0.10;;;23.70;60.60;;;;;;5084147;28;20079;-46
2022/09/01 13:35:03;;;;;;;3.15;0.10;;;23.70;60.70;;;;;;5052611;28;20449;-47
2022/09/01 13:37:29;;;;;;;13.65;0.65;;;23.60;60.40;;;;;;5050706;28;20395;-48
2022/09/01 13:39:55;;;;;;;0.45;0.10;;;23.50;61.10;;;;;;5056730;28;20044;-48
2022/09/01 13:42:21;;;;;;;2.10;0.10;;;23.50;60.40;;;;;;5052148;28;20041;-52
2022/09/01 13:44:46;;;;;;;0.30;0.10;;;23.50;60.40;;;;;;5052733;28;20076;-49
2022/09/01 13:47:12;;;;;;;1.05;0.10;;;23.50;60.40;;;;;;5052343;28;20045;-48
2022/09/01 13:49:38;;;;;;;2.58;0.10;;;23.50;60.60;;;;;;5057011;28;20044;-48
2022/09/01 13:52:04;;;;;;;4.95;0.10;;;23.40;60.00;;;;;;5058632;28;20049;-51
2022/09/01 13:54:29;;;;;;;3.42;0.15;;;23.40;60.50;;;;;;5055732;28;20039;-50
2022/09/01 13:56:55;;;;;;;2.65;0.10;;;23.50;60.60;;;;;;5061520;28;20029;-47
2022/09/01 13:59:21;;;;;;;5.95;1.00;;;23.60;60.70;;;;;;5060488;28;20067;-51
2022/09/01 14:01:46;;;;;;;3.92;0.10;;;23.70;60.40;;;;;;5058297;28;20040;-49
2022/09/01 14:04:12;;;;;;;2.30;0.10;;;23.70;59.60;;;;;;5052009;28;20530;-47
2022/09/01 14:06:43;;;;;;;2.60;0.10;;;23.70;59.60;;;;;;5051745;28;20048;-47
2022/09/01 14:09:12;;;;;;;4.22;0.35;;;23.60;59.30;;;;;;5057394;28;20654;-49
2022/09/01 14:11:38;;;;;;;3.08;0.20;;;23.50;60.40;;;;;;5050976;28;20045;-50
2022/09/01 14:14:04;;;;;;;3.90;0.20;;;23.50;60.70;;;;;;5056107;28;20047;-51
2022/09/01 14:16:29;;;;;;;2.45;0.17;;;23.40;60.00;;;;;;5066968;28;20037;-47
2022/09/01 14:18:55;;;;;;;6.88;0.32;;;23.30;60.00;;;;;;5069861;28;20067;-51
2022/09/01 14:21:20;;;;;;;2.33;0.10;;;23.40;59.90;;;;;;5056031;28;20518;-47
2022/09/01 14:23:46;;;;;;;1.83;0.20;;;23.50;60.20;;;;;;5050676;28;20033;-49
2022/09/01 14:26:14;;;;;;;1.00;0.10;;;23.60;60.30;;;;;;5068732;28;20040;-47
2022/09/01 14:28:44;;;;;;;3.25;0.10;;;23.80;60.40;;;;;;5064449;28;20179;-49
2022/09/01 14:31:12;;;;;;;1.90;0.10;;;23.90;59.20;;;;;;5058464;28;20036;-48
2022/09/01 14:33:39;;;;;;;2.05;0.10;;;23.90;58.30;;;;;;5050604;28;20122;-47